Have a Safe July 4th! 

Flight Track Log - Related Links

Times and Time Zones

All times are in EDT time to prevent confusion due to time zone crossing. See the UAL527 flight status page for this flight to view local times or setup timezone preferences in your user account.

Time Position Orientation Groundspeed Altitude Reporting Facility
EDT Latitude Longitude Course Direction KTS MPH feet Rate Location/Type
Sat 10:25:23 PM 41.9833 -87.8667 109° East 159 183 1,700  Level Chicago TRACON
Sat 10:26:23 PM 41.9667 -87.8000 109° East 210 242 3,300 1,747 Climbing Chicago TRACON
Sat 10:26:42 PM 41.9686 -87.7783 83° East 210 242 4,000 2,100 Climbing Chicago Center
Sat 10:27:43 PM 41.9500 -87.6808 104° East 258 297 6,100 2,361 Climbing Chicago Center
Sat 10:28:44 PM 41.9447 -87.5703 94° East 296 341 8,800 3,049 Climbing Chicago Center
Sat 10:29:45 PM 41.9464 -87.4492 89° East 319 367 12,300 3,049 Climbing Chicago Center
Sat 10:30:46 PM 41.9458 -87.3244 90° East 332 382 15,000 2,164 Climbing Chicago Center
Sat 10:31:47 PM 41.9447 -87.1867 91° East 374 430 16,700 2,164 Climbing Chicago Center
Sat 10:32:48 PM 41.9456 -87.0386 90° East 397 457 19,400 2,115 Climbing Chicago Center
Sat 10:33:49 PM 41.9494 -86.8811 88° East 419 482 21,000 1,475 Climbing Chicago Center
Sat 10:34:50 PM 41.9492 -86.7208 90° East 430 495 22,400 984 Climbing Chicago Center
Sat 10:35:51 PM 41.9525 -86.5358 89° East 439 505 23,000 934 Climbing Chicago Center
Sat 10:36:52 PM 41.9550 -86.3711 89° East 441 507 24,300 1,426 Climbing Chicago Center
Sat 10:37:53 PM 41.9533 -86.2006 91° East 456 525 25,900 1,525 Climbing Chicago Center
Sat 10:38:54 PM 41.9197 -86.0297 105° East 472 543 27,400 1,525 Climbing Chicago Center
Sat 10:39:55 PM 41.8847 -85.8564 105° East 479 551 29,000 1,884 Climbing Chicago Center
Sat 10:40:55 PM 41.8497 -85.6808 105° East 486 559 31,200 1,438 Climbing Chicago Center
Sat 10:41:56 PM 41.8147 -85.5017 105° East 491 565 31,900 1,820 Climbing Chicago Center
Sat 10:42:57 PM 41.7803 -85.3194 104° East 496 571 34,900 1,525 Climbing Chicago Center
Sat 10:43:58 PM 41.7358 -85.1486 109° East 483 556 35,000 49 Climbing Chicago Center
Sat 10:44:59 PM 41.6761 -84.9708 114° Southeast 515 593 35,000  Level Chicago Center
Sat 10:46:00 PM 41.6161 -84.7908 114° Southeast 527 606 35,000 246 Level Chicago Center
Sat 10:47:01 PM 41.5547 -84.6136 115° Southeast 524 603 35,500 689 Climbing Chicago Center
Sat 10:48:02 PM 41.4939 -84.4347 114° Southeast 528 608 36,400 744 Climbing Chicago Center
Sat 10:49:02 PM 41.4319 -84.2553 115° Southeast 534 615 37,000 298 Climbing Chicago Center
Sat 10:50:03 PM 41.3694 -84.0744 115° Southeast 537 618 37,000  Level Chicago Center
Sat 10:51:04 PM 41.3078 -83.8992 115° Southeast 525 604 37,000  Level Chicago Center
Sat 10:51:19 PM 41.2878 -83.8525 120° Southeast 525 604 37,000  Level Cleveland Center
Sat 10:52:19 PM 41.2239 -83.6753 116° Southeast 519 597 37,000  Level Cleveland Center
Sat 10:53:19 PM 41.1639 -83.5042 115° Southeast 519 597 37,000  Level Cleveland Center
Sat 10:54:19 PM 41.1033 -83.3333 115° Southeast 513 590 37,000  Level Cleveland Center
Sat 10:55:19 PM 41.0428 -83.1600 115° Southeast 513 590 37,000 50 Level Cleveland Center
Sat 10:56:19 PM 40.9800 -82.9842 115° Southeast 519 597 37,100  Climbing Cleveland Center
Sat 10:57:19 PM 40.9167 -82.8142 116° Southeast 519 597 37,000 -50 Descending Cleveland Center
Sat 10:58:19 PM 40.8553 -82.6419 115° Southeast 514 592 37,000  Level Cleveland Center
Sat 10:58:38 PM 40.8336 -82.5800 115° Southeast 516 594 37,000 -75 Level Indianapolis Center
Sat 10:59:39 PM 40.7714 -82.4103 116° Southeast 513 590 36,900  Descending Indianapolis Center
Sat 11:00:39 PM 40.7089 -82.2417 116° Southeast 511 588 37,000 60 Climbing Indianapolis Center
Sat 11:01:19 PM 40.6614 -82.1214 117° Southeast 508 585 37,000  Level Cleveland Center
Sat 11:02:19 PM 40.5989 -81.9531 116° Southeast 513 590 37,000  Level Cleveland Center
Sat 11:02:40 PM 40.5833 -81.9081 114° Southeast 507 583 37,000  Level Indianapolis Center
Sat 11:03:41 PM 40.5214 -81.7411 116° Southeast 506 582 37,000  Level Indianapolis Center
Sat 11:04:19 PM 40.4753 -81.6203 117° Southeast 503 579 37,000  Level Cleveland Center
Sat 11:05:19 PM 40.4097 -81.4556 118° Southeast 503 579 37,000  Level Cleveland Center
Sat 11:06:19 PM 40.3589 -81.3025 114° Southeast 508 585 37,000  Level Cleveland Center
Sat 11:06:43 PM 40.3283 -81.2364 121° Southeast 516 594 37,000 71 Level Indianapolis Center
Sat 11:07:44 PM 40.2747 -81.0594 112° Southeast 518 596 37,100 63 Climbing Indianapolis Center
Sat 11:08:19 PM 40.2478 -80.9583 109° East 508 585 37,100 -63 Level Cleveland Center
Sat 11:09:19 PM 40.1942 -80.7842 112° Southeast 508 585 37,000 -489 Descending Cleveland Center
Sat 11:11:23 PM 40.0800 -80.4125 112° Southeast 504 580 35,600 -1,061 Descending Washington Center
Sat 11:11:46 PM 40.0572 -80.3467 114° Southeast 509 586 34,400 -2,458 Descending Indianapolis Center
Sat 11:12:46 PM 40.0036 -80.1719 112° Southeast 516 594 32,200 -2,025 Descending Indianapolis Center
Sat 11:14:26 PM 39.9239 -79.9094 112° Southeast 499 574 29,000 -1,875 Descending Washington Center
Sat 11:15:26 PM 39.8733 -79.7522 113° Southeast 480 552 27,200 -1,576 Descending Washington Center
Sat 11:16:24 PM 39.8264 -79.5983 112° Southeast 469 540 25,900 -1,119 Descending Washington Center
Sat 11:17:24 PM 39.7792 -79.4497 112° Southeast 454 522 25,000 -450 Descending Washington Center
Sat 11:18:24 PM 39.7278 -79.2961 113° Southeast 454 522 25,000  Level Washington Center
Sat 11:19:25 PM 39.6783 -79.1344 112° Southeast 465 535 25,000 -850 Level Washington Center
Sat 11:20:24 PM 39.6372 -78.9706 108° East 471 542 23,300 -1,950 Descending Washington Center
Sat 11:21:25 PM 39.6019 -78.8156 106° East 490 564 21,100 -2,231 Descending Washington Center
Sat 11:22:25 PM 39.5683 -78.6631 106° East 472 543 18,800 -2,200 Descending Washington Center
Sat 11:23:25 PM 39.5364 -78.5192 106° East 439 505 16,700 -1,916 Descending Washington Center
Sat 11:24:24 PM 39.5025 -78.3725 107° East 420 483 15,000 -864 Descending Washington Center
Sat 11:25:23 PM 39.4722 -78.2289 105° East 420 483 15,000  Level Washington Center
Sat 11:26:24 PM 39.4378 -78.0825 107° East 420 483 15,000  Level Washington Center
Sat 11:27:23 PM 39.4053 -77.9364 106° East 420 483 15,000 -893 Level Washington Center
Sat 11:28:25 PM 39.4164 -77.7889 84° East 415 478 13,200 -1,934 Descending Washington Center
Sat 11:29:24 PM 39.4253 -77.6494 85° East 402 463 11,100 -1,109 Descending Washington Center
Sat 11:30:24 PM 39.4336 -77.5128 85° East 386 444 11,000 -50 Descending Washington Center
Sat 11:31:24 PM 39.4442 -77.3761 84° East 381 438 11,000  Level Washington Center
Sat 11:31:58 PM 39.4500 -77.2833 85° East 383 441 11,000 -255 Level Potomac TRACON
Sat 11:32:58 PM 39.4333 -77.1667 100° East 371 427 10,600 -700 Descending Potomac TRACON
Sat 11:33:58 PM 39.3833 -77.0667 123° Southeast 323 372 9,600 -1,200 Descending Potomac TRACON
Sat 11:34:58 PM 39.3167 -76.9833 136° Southeast 299 344 8,200 -1,579 Descending Potomac TRACON
Sat 11:35:52 PM 39.2500 -76.9333 150° Southeast 300 345 6,600 -1,632 Descending Potomac TRACON
Sat 11:36:52 PM 39.2000 -76.8667 134° Southeast 278 320 5,100 -1,905 Descending Potomac TRACON
Sat 11:37:58 PM 39.1333 -76.7833 136° Southeast 270 311 2,600 -2,273 Descending Potomac TRACON

Login

Don't have an account? Register now (free) for customized features, flight alerts, and more!